Time;durP1;ratioP1;P1;durP2;ratioP2;P2;SDS_P1;SDS_P2;PMS_P1;PMS_P2;Temp;Humidity;BMP_temperature;BMP_pressure;BME280_temperature;BME280_humidity;BME280_pressure;Samples;Min_cycle;Max_cycle;Signal;HPM_P1;HPM_P2
2023/01/26 00:01:44;;;;;;;38.13;17.65;;;;;;;;;;4980645;28;20363;-76
2023/01/26 00:04:30;;;;;;;37.70;17.40;;;;;;;;;;4994586;28;20023;-76
2023/01/26 00:07:15;;;;;;;35.25;17.75;;;;;;;;;;4995101;28;20061;-76
2023/01/26 00:10:01;;;;;;;35.90;17.23;;;;;;;;;;4980534;28;20030;-76
2023/01/26 00:12:47;;;;;;;38.22;17.60;;;;;;;;;;4994837;28;20022;-76
2023/01/26 00:15:33;;;;;;;44.60;18.85;;;;;;;;;;4993660;28;20031;-76
2023/01/26 00:18:19;;;;;;;41.92;18.27;;;;;;;;;;4994659;28;20430;-75
2023/01/26 00:21:05;;;;;;;36.25;17.73;;;;;;;;;;4994410;28;20455;-75
2023/01/26 00:23:51;;;;;;;35.70;17.27;;;;;;;;;;4995044;28;20027;-76
2023/01/26 00:26:37;;;;;;;37.45;17.35;;;;;;;;;;4994558;28;20026;-76
2023/01/26 00:29:22;;;;;;;40.63;17.88;;;;;;;;;;4994457;28;20026;-75
2023/01/26 00:32:08;;;;;;;38.72;18.80;;;;;;;;;;4980116;28;20367;-76
2023/01/26 00:34:54;;;;;;;38.40;18.20;;;;;;;;;;4993497;28;20043;-76
2023/01/26 00:37:42;;;;;;;40.60;18.23;;;;;;;;;;4993711;28;20030;-76
2023/01/26 00:40:28;;;;;;;37.03;17.88;;;;;;;;;;4994554;28;20030;-76
2023/01/26 00:43:14;;;;;;;37.95;18.73;;;;;;;;;;4993762;28;20478;-75
2023/01/26 00:45:59;;;;;;;36.92;17.17;;;;;;;;;;4993908;28;20058;-75
2023/01/26 00:48:45;;;;;;;37.15;17.95;;;;;;;;;;4995037;28;20022;-76
2023/01/26 00:51:30;;;;;;;39.70;18.05;;;;;;;;;;4994619;28;20018;-76
2023/01/26 00:54:16;;;;;;;38.22;18.08;;;;;;;;;;4981098;28;20137;-75
2023/01/26 00:57:01;;;;;;;37.42;18.45;;;;;;;;;;4993803;28;20046;-76
2023/01/26 00:59:47;;;;;;;41.22;18.42;;;;;;;;;;4980900;28;20018;-75
2023/01/26 01:02:33;;;;;;;39.15;18.15;;;;;;;;;;4994285;28;20370;-75
2023/01/26 01:05:18;;;;;;;40.72;19.45;;;;;;;;;;4981093;28;20022;-75
2023/01/26 01:08:04;;;;;;;36.40;18.63;;;;;;;;;;4980433;28;20019;-75
2023/01/26 01:10:49;;;;;;;42.78;20.27;;;;;;;;;;4980748;28;20041;-75
2023/01/26 01:13:37;;;;;;;41.90;18.67;;;;;;;;;;4994477;28;20062;-76
2023/01/26 01:16:23;;;;;;;40.10;18.73;;;;;;;;;;4994239;28;20030;-76
2023/01/26 01:19:12;;;;;;;39.75;18.55;;;;;;;;;;5010411;28;20018;-74
2023/01/26 01:21:57;;;;;;;41.15;19.20;;;;;;;;;;4995382;28;20011;-76
2023/01/26 01:24:43;;;;;;;40.58;19.40;;;;;;;;;;4981474;28;20454;-76
2023/01/26 01:27:28;;;;;;;40.58;18.58;;;;;;;;;;4984690;28;20026;-76
2023/01/26 01:30:14;;;;;;;43.38;19.98;;;;;;;;;;4984723;28;20027;-74
2023/01/26 01:33:00;;;;;;;38.30;17.70;;;;;;;;;;4997902;28;20105;-76
2023/01/26 01:35:55;;;;;;;39.67;19.25;;;;;;;;;;4997208;28;20058;-76
2023/01/26 01:38:41;;;;;;;39.85;18.70;;;;;;;;;;4997613;28;20042;-76
2023/01/26 01:41:26;;;;;;;43.97;19.02;;;;;;;;;;4998682;28;20037;-76
2023/01/26 01:44:13;;;;;;;41.13;19.40;;;;;;;;;;4994237;28;20030;-76
2023/01/26 01:46:59;;;;;;;41.72;18.95;;;;;;;;;;4996140;28;20034;-75
2023/01/26 01:49:46;;;;;;;38.33;19.05;;;;;;;;;;5003968;28;20034;-75
2023/01/26 01:52:32;;;;;;;41.40;18.13;;;;;;;;;;5006550;28;20026;-76
2023/01/26 01:55:18;;;;;;;38.78;18.85;;;;;;;;;;5015499;28;20056;-76
2023/01/26 01:58:04;;;;;;;37.65;19.02;;;;;;;;;;5020013;28;20013;-74
2023/01/26 02:00:49;;;;;;;40.58;19.52;;;;;;;;;;5006147;28;20034;-74
2023/01/26 02:03:36;;;;;;;44.03;20.30;;;;;;;;;;5020066;28;20019;-74
2023/01/26 02:06:25;;;;;;;43.63;19.85;;;;;;;;;;5019196;28;20105;-74
2023/01/26 02:10:17;;;;;;;46.55;20.00;;;;;;;;;;5007379;28;20083;-75
2023/01/26 02:12:21;;;;;;;44.97;19.75;;;;;;;;;;5019505;28;20049;-74
2023/01/26 02:15:07;;;;;;;43.08;19.60;;;;;;;;;;5020000;28;20010;-75
2023/01/26 02:17:53;;;;;;;43.60;19.67;;;;;;;;;;4987343;28;20034;-76
2023/01/26 02:20:53;;;;;;;41.65;19.80;;;;;;;;;;4984224;28;20037;-75
2023/01/26 02:23:41;;;;;;;40.65;19.38;;;;;;;;;;4998783;28;20026;-75
2023/01/26 02:26:34;;;;;;;43.03;20.15;;;;;;;;;;4983564;28;20153;-77
2023/01/26 02:29:20;;;;;;;44.42;19.48;;;;;;;;;;4996920;28;20022;-75
2023/01/26 02:32:05;;;;;;;45.70;20.15;;;;;;;;;;4984380;28;20091;-75
2023/01/26 02:34:54;;;;;;;41.22;19.40;;;;;;;;;;4996690;28;20371;-75
2023/01/26 02:37:40;;;;;;;41.80;20.67;;;;;;;;;;4998419;28;20096;-76
2023/01/26 02:40:42;;;;;;;45.60;19.65;;;;;;;;;;5009699;28;20010;-75
2023/01/26 02:43:28;;;;;;;39.40;17.98;;;;;;;;;;5018648;28;20030;-74
2023/01/26 02:46:13;;;;;;;42.13;19.35;;;;;;;;;;5018869;28;20022;-76
2023/01/26 02:52:03;;;;;;;48.67;21.27;;;;;;;;;;5017051;28;20030;-76
2023/01/26 02:57:53;;;;;;;43.13;18.92;;;;;;;;;;5019234;28;20018;-76
2023/01/26 03:00:41;;;;;;;38.25;18.70;;;;;;;;;;5018644;28;20034;-75
2023/01/26 03:03:40;;;;;;;41.90;19.70;;;;;;;;;;5018490;28;20018;-76
2023/01/26 03:06:25;;;;;;;43.53;19.52;;;;;;;;;;5016747;28;20042;-75
2023/01/26 03:09:11;;;;;;;41.33;18.85;;;;;;;;;;5001145;28;20062;-75
2023/01/26 03:11:57;;;;;;;42.97;19.83;;;;;;;;;;4997340;28;20487;-76
2023/01/26 03:14:42;;;;;;;43.13;19.98;;;;;;;;;;4983170;28;20030;-75
2023/01/26 03:17:28;;;;;;;43.40;20.15;;;;;;;;;;4996123;28;20030;-76
2023/01/26 03:29:26;;;;;;;44.65;19.25;;;;;;;;;;4996503;28;20112;-75
2023/01/26 03:32:12;;;;;;;43.28;19.15;;;;;;;;;;4996056;28;20050;-74
2023/01/26 03:34:58;;;;;;;42.70;20.77;;;;;;;;;;4995670;28;20408;-76
2023/01/26 03:37:43;;;;;;;46.22;21.00;;;;;;;;;;4995152;28;20068;-77
2023/01/26 03:58:56;;;;;;;47.75;20.38;;;;;;;;;;5010350;28;20053;-74
2023/01/26 04:10:57;;;;;;;45.38;21.27;;;;;;;;;;4996287;28;20507;-74
2023/01/26 04:22:54;;;;;;;47.65;20.83;;;;;;;;;;4995768;28;20040;-75
2023/01/26 04:25:40;;;;;;;47.80;20.25;;;;;;;;;;4982326;28;20022;-74
2023/01/26 04:28:25;;;;;;;44.97;20.05;;;;;;;;;;4981526;28;20019;-76
2023/01/26 04:31:11;;;;;;;46.95;20.23;;;;;;;;;;4994968;28;20018;-75
2023/01/26 04:33:57;;;;;;;49.17;19.35;;;;;;;;;;4981114;28;20022;-77
2023/01/26 04:36:43;;;;;;;52.97;20.50;;;;;;;;;;4975168;28;20050;-76
2023/01/26 04:39:29;;;;;;;50.25;21.17;;;;;;;;;;4974758;28;20363;-76
2023/01/26 04:42:14;;;;;;;49.63;21.00;;;;;;;;;;4974298;28;20029;-77
2023/01/26 04:45:00;;;;;;;48.50;20.02;;;;;;;;;;4974896;28;20050;-75
2023/01/26 04:47:45;;;;;;;49.55;20.55;;;;;;;;;;4974660;28;20415;-75
2023/01/26 04:50:31;;;;;;;41.95;20.35;;;;;;;;;;4976581;28;20102;-76
2023/01/26 04:53:16;;;;;;;50.90;20.88;;;;;;;;;;4975701;28;20041;-77
2023/01/26 04:56:02;;;;;;;44.55;19.33;;;;;;;;;;4975490;28;20432;-76
2023/01/26 04:58:48;;;;;;;46.80;20.63;;;;;;;;;;4975402;28;20093;-76
2023/01/26 05:01:34;;;;;;;48.63;19.90;;;;;;;;;;4975877;28;20023;-75
2023/01/26 05:04:19;;;;;;;46.35;20.33;;;;;;;;;;4978720;28;20046;-76
2023/01/26 05:07:05;;;;;;;43.83;19.75;;;;;;;;;;4980595;28;20019;-76
2023/01/26 05:09:50;;;;;;;41.28;19.92;;;;;;;;;;4979387;28;20015;-75
2023/01/26 05:12:37;;;;;;;41.33;18.63;;;;;;;;;;4980248;28;20053;-76
2023/01/26 05:15:22;;;;;;;42.67;20.45;;;;;;;;;;4979972;28;20019;-76
2023/01/26 05:18:08;;;;;;;44.65;19.90;;;;;;;;;;4977905;28;20022;-75
2023/01/26 05:20:54;;;;;;;43.17;19.65;;;;;;;;;;4978012;28;20031;-77
2023/01/26 05:23:39;;;;;;;43.25;19.15;;;;;;;;;;4979734;28;20470;-77
2023/01/26 05:26:25;;;;;;;45.28;20.60;;;;;;;;;;4979720;28;20041;-76
2023/01/26 05:29:10;;;;;;;47.05;20.48;;;;;;;;;;4979366;28;20069;-77
2023/01/26 05:31:56;;;;;;;41.67;20.52;;;;;;;;;;4979442;28;20062;-78
2023/01/26 05:34:42;;;;;;;47.25;20.38;;;;;;;;;;4981190;28;20085;-77
2023/01/26 05:37:27;;;;;;;42.92;19.98;;;;;;;;;;4984655;28;20105;-77
2023/01/26 05:40:13;;;;;;;44.85;20.30;;;;;;;;;;4997856;28;20030;-76
2023/01/26 05:42:59;;;;;;;48.78;21.30;;;;;;;;;;4997847;28;20447;-77
2023/01/26 05:45:44;;;;;;;46.08;20.58;;;;;;;;;;4983977;28;20022;-76
2023/01/26 05:48:30;;;;;;;51.30;21.50;;;;;;;;;;4996905;28;20033;-76
2023/01/26 05:51:15;;;;;;;46.75;20.95;;;;;;;;;;4996890;28;20105;-76
2023/01/26 05:54:01;;;;;;;51.75;21.17;;;;;;;;;;4997464;28;20092;-77
2023/01/26 05:56:46;;;;;;;50.35;20.85;;;;;;;;;;4997437;28;20036;-77
2023/01/26 05:59:32;;;;;;;46.47;19.55;;;;;;;;;;4984226;28;20053;-76
2023/01/26 06:02:18;;;;;;;44.25;20.08;;;;;;;;;;4983439;28;20050;-78
2023/01/26 06:05:04;;;;;;;50.13;20.73;;;;;;;;;;4984292;28;20109;-78
2023/01/26 06:07:50;;;;;;;41.05;19.80;;;;;;;;;;4997270;28;20057;-77
2023/01/26 06:10:35;;;;;;;43.45;19.80;;;;;;;;;;4996706;28;20093;-78
2023/01/26 06:13:21;;;;;;;44.97;20.45;;;;;;;;;;4995729;28;20054;-77
2023/01/26 06:16:06;;;;;;;44.88;21.33;;;;;;;;;;4983140;28;20379;-77
2023/01/26 06:18:52;;;;;;;47.15;21.17;;;;;;;;;;4996912;28;20097;-78
2023/01/26 06:21:37;;;;;;;50.97;21.20;;;;;;;;;;4996652;28;20018;-77
2023/01/26 06:24:23;;;;;;;51.63;21.75;;;;;;;;;;4997678;28;20037;-76
2023/01/26 06:27:13;;;;;;;49.97;22.23;;;;;;;;;;4984546;28;20030;-77
2023/01/26 06:29:59;;;;;;;52.45;23.17;;;;;;;;;;4983838;28;20035;-77
2023/01/26 06:32:46;;;;;;;56.38;23.45;;;;;;;;;;4998284;28;20022;-78
2023/01/26 06:35:32;;;;;;;59.67;24.13;;;;;;;;;;4997896;28;20450;-78
2023/01/26 06:38:18;;;;;;;57.15;22.63;;;;;;;;;;4985572;28;20030;-77
2023/01/26 06:41:04;;;;;;;54.42;23.50;;;;;;;;;;5009345;28;20040;-78
2023/01/26 06:43:50;;;;;;;56.85;25.10;;;;;;;;;;4985382;28;20022;-79
2023/01/26 06:46:35;;;;;;;56.67;23.83;;;;;;;;;;4983973;28;20022;-78
2023/01/26 06:49:21;;;;;;;64.45;23.85;;;;;;;;;;4983381;28;20022;-79
2023/01/26 06:52:22;;;;;;;62.60;23.70;;;;;;;;;;4984768;28;20068;-79
2023/01/26 06:55:14;;;;;;;51.97;22.85;;;;;;;;;;4997523;28;20460;-78
2023/01/26 06:57:59;;;;;;;54.72;22.90;;;;;;;;;;4987171;28;20101;-76
2023/01/26 07:00:45;;;;;;;61.33;24.67;;;;;;;;;;4990147;28;20455;-77
2023/01/26 07:03:30;;;;;;;59.13;23.65;;;;;;;;;;5005232;28;20023;-76
2023/01/26 07:06:16;;;;;;;53.60;22.88;;;;;;;;;;4986383;28;20045;-77
2023/01/26 07:09:02;;;;;;;56.47;23.67;;;;;;;;;;4983320;28;20037;-77
2023/01/26 07:11:47;;;;;;;58.60;24.05;;;;;;;;;;4996891;28;20083;-77
2023/01/26 07:14:33;;;;;;;60.90;24.80;;;;;;;;;;4996084;28;20093;-77
2023/01/26 07:17:19;;;;;;;54.70;23.27;;;;;;;;;;4995602;28;20089;-77
2023/01/26 07:20:05;;;;;;;53.25;22.85;;;;;;;;;;4995686;28;20018;-76
2023/01/26 07:22:51;;;;;;;48.33;21.63;;;;;;;;;;4982037;28;20027;-77
2023/01/26 07:25:36;;;;;;;51.30;22.52;;;;;;;;;;4995684;28;20026;-78
2023/01/26 07:28:22;;;;;;;55.70;23.58;;;;;;;;;;4982759;28;20101;-77
2023/01/26 07:31:09;;;;;;;57.40;23.58;;;;;;;;;;4981626;28;20026;-79
2023/01/26 07:33:55;;;;;;;55.35;22.25;;;;;;;;;;4982747;28;20077;-77
2023/01/26 07:36:40;;;;;;;50.15;22.33;;;;;;;;;;4975721;28;20106;-78
2023/01/26 07:39:26;;;;;;;52.53;21.33;;;;;;;;;;4976215;28;20023;-76
2023/01/26 07:42:12;;;;;;;51.67;21.23;;;;;;;;;;4976510;28;20117;-77
2023/01/26 07:44:58;;;;;;;59.15;23.98;;;;;;;;;;4977195;28;20034;-76
2023/01/26 07:47:44;;;;;;;55.20;22.92;;;;;;;;;;4975238;28;20030;-76
2023/01/26 07:50:29;;;;;;;59.00;24.17;;;;;;;;;;4977111;28;20351;-76
2023/01/26 07:53:18;;;;;;;59.90;23.98;;;;;;;;;;4975958;28;20026;-77
2023/01/26 07:56:05;;;;;;;58.40;23.55;;;;;;;;;;4975456;28;20030;-77
2023/01/26 07:58:51;;;;;;;56.70;23.33;;;;;;;;;;4976088;28;20503;-78
2023/01/26 08:01:36;;;;;;;57.00;22.90;;;;;;;;;;4976878;28;20478;-75
2023/01/26 08:04:22;;;;;;;63.97;24.92;;;;;;;;;;4975538;28;20019;-76
2023/01/26 08:07:07;;;;;;;55.20;22.73;;;;;;;;;;4977271;28;20062;-76
2023/01/26 08:09:53;;;;;;;49.15;21.35;;;;;;;;;;4976527;28;20023;-78
2023/01/26 08:12:39;;;;;;;47.22;20.92;;;;;;;;;;4976863;28;20026;-78
2023/01/26 08:15:24;;;;;;;45.78;20.52;;;;;;;;;;4975614;28;20023;-78
2023/01/26 08:18:10;;;;;;;42.25;18.40;;;;;;;;;;4976008;28;20025;-78
2023/01/26 08:20:55;;;;;;;42.40;18.83;;;;;;;;;;4976796;28;20031;-78
2023/01/26 08:23:41;;;;;;;43.63;19.70;;;;;;;;;;4975420;28;20458;-78
2023/01/26 08:26:27;;;;;;;45.63;20.13;;;;;;;;;;4976272;28;20023;-78
2023/01/26 08:29:13;;;;;;;44.17;18.42;;;;;;;;;;4975405;28;20070;-78
2023/01/26 08:31:58;;;;;;;41.25;19.90;;;;;;;;;;4976314;28;20027;-77
2023/01/26 08:34:44;;;;;;;45.85;20.58;;;;;;;;;;4978463;28;20027;-77
2023/01/26 08:37:30;;;;;;;45.38;21.08;;;;;;;;;;4994373;28;20041;-79
2023/01/26 08:40:15;;;;;;;47.72;20.55;;;;;;;;;;4994233;28;20109;-77
2023/01/26 08:43:01;;;;;;;45.92;19.63;;;;;;;;;;4980464;28;20019;-77
2023/01/26 08:45:47;;;;;;;44.75;21.17;;;;;;;;;;4994861;28;20073;-77
2023/01/26 08:48:33;;;;;;;45.75;21.17;;;;;;;;;;4981447;28;20034;-78
2023/01/26 08:51:18;;;;;;;44.03;19.60;;;;;;;;;;4995072;28;20030;-77
2023/01/26 08:54:06;;;;;;;47.85;22.15;;;;;;;;;;4994198;28;20010;-77
2023/01/26 08:56:54;;;;;;;44.17;21.05;;;;;;;;;;4981517;28;20034;-77
2023/01/26 08:59:39;;;;;;;45.45;21.40;;;;;;;;;;4994084;28;20352;-78
2023/01/26 09:02:25;;;;;;;49.88;21.15;;;;;;;;;;4981437;28;20034;-78
2023/01/26 09:05:10;;;;;;;51.40;25.05;;;;;;;;;;4996327;28;20022;-77
2023/01/26 09:07:56;;;;;;;48.47;22.98;;;;;;;;;;4994476;28;20010;-77
2023/01/26 09:10:44;;;;;;;49.75;21.35;;;;;;;;;;4981417;28;20101;-79
2023/01/26 09:13:29;;;;;;;51.08;21.42;;;;;;;;;;4994891;28;20034;-78
2023/01/26 09:16:18;;;;;;;54.80;21.92;;;;;;;;;;4993744;28;20026;-78
2023/01/26 09:19:04;;;;;;;47.35;20.77;;;;;;;;;;4993939;28;20033;-78
2023/01/26 09:21:53;;;;;;;48.25;21.73;;;;;;;;;;4980802;28;20019;-78
2023/01/26 09:24:39;;;;;;;45.83;22.10;;;;;;;;;;4980962;28;20084;-78
2023/01/26 09:27:24;;;;;;;47.60;22.27;;;;;;;;;;4994531;28;20045;-80
2023/01/26 09:30:10;;;;;;;56.78;23.50;;;;;;;;;;4994255;28;20109;-78
2023/01/26 09:33:00;;;;;;;49.28;21.63;;;;;;;;;;4994439;28;20414;-78
2023/01/26 09:35:46;;;;;;;52.78;22.15;;;;;;;;;;4995021;28;20081;-77
2023/01/26 09:38:32;;;;;;;54.33;23.17;;;;;;;;;;4994352;28;20083;-78
2023/01/26 09:41:36;;;;;;;47.25;21.70;;;;;;;;;;4995499;28;20085;-78
2023/01/26 09:44:26;;;;;;;53.35;22.88;;;;;;;;;;4995197;28;20030;-78
2023/01/26 09:47:11;;;;;;;51.45;21.83;;;;;;;;;;4995353;28;20049;-78
2023/01/26 09:50:10;;;;;;;58.13;24.38;;;;;;;;;;4998666;28;20037;-77
2023/01/26 09:52:58;;;;;;;53.13;22.48;;;;;;;;;;4998849;28;20023;-77
2023/01/26 09:55:44;;;;;;;54.13;21.73;;;;;;;;;;4998187;28;20459;-77
2023/01/26 09:58:38;;;;;;;59.90;25.03;;;;;;;;;;4993943;28;20010;-77
2023/01/26 10:01:28;;;;;;;57.75;24.77;;;;;;;;;;5004460;28;20037;-75
2023/01/26 10:04:24;;;;;;;53.20;22.92;;;;;;;;;;5002882;28;20014;-76
2023/01/26 10:07:13;;;;;;;58.17;25.40;;;;;;;;;;4998438;28;20455;-76
2023/01/26 10:09:58;;;;;;;60.83;25.27;;;;;;;;;;4997727;28;20033;-77
2023/01/26 10:12:47;;;;;;;58.83;24.65;;;;;;;;;;4997352;28;20010;-76
2023/01/26 10:15:37;;;;;;;63.25;25.23;;;;;;;;;;4998692;28;20029;-78
2023/01/26 10:18:27;;;;;;;58.03;25.45;;;;;;;;;;4997626;28;20446;-77
2023/01/26 10:21:14;;;;;;;55.05;22.60;;;;;;;;;;4996803;28;20026;-76
2023/01/26 10:24:00;;;;;;;61.17;26.58;;;;;;;;;;4997865;28;20367;-76
2023/01/26 10:26:45;;;;;;;59.15;26.55;;;;;;;;;;4997816;28;20033;-77
2023/01/26 10:29:31;;;;;;;58.78;25.02;;;;;;;;;;5010986;28;20026;-77
2023/01/26 10:32:17;;;;;;;76.57;30.75;;;;;;;;;;5011362;28;20034;-77
2023/01/26 10:35:03;;;;;;;64.70;26.25;;;;;;;;;;4984718;28;20046;-76
2023/01/26 10:37:51;;;;;;;56.75;25.65;;;;;;;;;;5012864;28;20038;-77
2023/01/26 10:40:44;;;;;;;53.65;23.50;;;;;;;;;;4987132;28;20034;-78
2023/01/26 10:43:34;;;;;;;53.65;23.92;;;;;;;;;;4997942;28;20022;-77
2023/01/26 10:46:23;;;;;;;57.70;25.52;;;;;;;;;;4984160;28;20080;-78
2023/01/26 10:49:08;;;;;;;61.10;26.00;;;;;;;;;;4996622;28;20023;-77
2023/01/26 10:52:24;;;;;;;55.85;24.55;;;;;;;;;;4983146;28;20037;-78
2023/01/26 10:55:11;;;;;;;63.35;28.10;;;;;;;;;;4988736;28;20034;-79
2023/01/26 10:57:56;;;;;;;61.55;26.15;;;;;;;;;;4982722;28;20034;-77
2023/01/26 11:00:42;;;;;;;67.75;28.58;;;;;;;;;;4996150;28;20026;-77
2023/01/26 11:03:28;;;;;;;61.78;27.65;;;;;;;;;;4995839;28;20421;-76
2023/01/26 11:06:14;;;;;;;60.25;26.30;;;;;;;;;;4997716;28;20026;-77
2023/01/26 11:09:09;;;;;;;86.00;41.92;;;;;;;;;;4996690;28;20026;-77
2023/01/26 11:11:55;;;;;;;64.75;26.67;;;;;;;;;;4982341;28;20026;-77
2023/01/26 11:14:41;;;;;;;64.72;27.65;;;;;;;;;;4996426;28;20516;-78
2023/01/26 11:17:29;;;;;;;61.78;24.55;;;;;;;;;;4998707;28;20038;-77
2023/01/26 11:20:25;;;;;;;58.05;24.23;;;;;;;;;;4997629;28;20451;-77
2023/01/26 11:23:11;;;;;;;60.47;26.27;;;;;;;;;;4984773;28;20018;-77
2023/01/26 11:26:05;;;;;;;63.92;27.52;;;;;;;;;;4996173;28;20092;-78
2023/01/26 11:28:57;;;;;;;85.85;40.22;;;;;;;;;;4996484;28;20018;-77
2023/01/26 11:31:42;;;;;;;65.65;28.35;;;;;;;;;;4996200;28;20026;-77
2023/01/26 11:34:28;;;;;;;80.50;39.63;;;;;;;;;;5000645;28;20032;-77
2023/01/26 11:37:22;;;;;;;71.80;29.25;;;;;;;;;;4977870;28;20070;-78
2023/01/26 11:40:11;;;;;;;60.35;27.42;;;;;;;;;;4977781;28;20030;-78
2023/01/26 11:43:11;;;;;;;66.18;29.58;;;;;;;;;;4977599;28;20038;-78
2023/01/26 11:45:56;;;;;;;68.05;32.10;;;;;;;;;;4963381;28;20387;-78
2023/01/26 11:49:00;;;;;;;66.95;28.55;;;;;;;;;;4964579;28;20015;-78
2023/01/26 11:52:04;;;;;;;63.40;29.23;;;;;;;;;;4977580;28;20081;-78
2023/01/26 11:54:55;;;;;;;63.97;28.08;;;;;;;;;;4977408;28;20107;-79
2023/01/26 11:58:01;;;;;;;68.93;29.30;;;;;;;;;;4977274;28;20026;-77
2023/01/26 12:00:57;;;;;;;70.75;28.45;;;;;;;;;;4976937;28;20440;-77
2023/01/26 12:03:46;;;;;;;71.22;28.42;;;;;;;;;;4962670;28;20018;-77
2023/01/26 12:06:39;;;;;;;75.22;29.48;;;;;;;;;;4977079;28;20451;-78
2023/01/26 12:09:35;;;;;;;72.05;28.05;;;;;;;;;;4977669;28;20065;-79
2023/01/26 12:12:21;;;;;;;68.22;28.50;;;;;;;;;;4962608;28;20030;-78
2023/01/26 12:15:14;;;;;;;72.38;30.13;;;;;;;;;;4977030;28;20077;-78
2023/01/26 12:18:14;;;;;;;64.68;26.58;;;;;;;;;;4976161;28;20034;-78
2023/01/26 12:21:03;;;;;;;68.57;28.40;;;;;;;;;;4962845;28;20023;-79
2023/01/26 12:23:48;;;;;;;70.75;28.02;;;;;;;;;;4976715;28;20015;-77
2023/01/26 12:26:41;;;;;;;74.65;28.85;;;;;;;;;;4962751;28;20050;-78
2023/01/26 12:29:38;;;;;;;71.63;28.45;;;;;;;;;;4961554;28;20062;-76
2023/01/26 12:32:26;;;;;;;93.53;42.63;;;;;;;;;;4975982;28;20421;-79
2023/01/26 12:35:12;;;;;;;79.20;30.58;;;;;;;;;;4968358;28;20062;-79
2023/01/26 12:38:02;;;;;;;78.72;29.25;;;;;;;;;;4994714;28;20022;-78
2023/01/26 12:40:57;;;;;;;78.75;29.17;;;;;;;;;;4996313;28;20026;-77
2023/01/26 12:44:05;;;;;;;72.88;28.10;;;;;;;;;;4981633;28;20394;-78
2023/01/26 12:47:11;;;;;;;77.63;28.67;;;;;;;;;;4981547;28;20010;-78
2023/01/26 12:49:57;;;;;;;73.45;29.58;;;;;;;;;;4980480;28;20432;-78
2023/01/26 12:52:55;;;;;;;73.75;28.55;;;;;;;;;;4980813;28;20045;-76
2023/01/26 12:55:48;;;;;;;67.45;28.48;;;;;;;;;;4981370;28;20022;-76
2023/01/26 12:58:36;;;;;;;72.07;30.47;;;;;;;;;;4979830;28;20156;-76
2023/01/26 13:01:24;;;;;;;77.32;29.83;;;;;;;;;;4994612;28;20061;-76
2023/01/26 13:04:12;;;;;;;70.47;27.40;;;;;;;;;;4994815;28;20026;-72
2023/01/26 13:07:02;;;;;;;71.93;27.23;;;;;;;;;;4995026;28;20034;-72
2023/01/26 13:10:18;;;;;;;71.55;26.33;;;;;;;;;;4995090;28;20019;-72
2023/01/26 13:13:15;;;;;;;74.05;27.52;;;;;;;;;;4977361;28;20034;-71
2023/01/26 13:16:16;;;;;;;67.90;26.98;;;;;;;;;;4994438;28;20093;-70
2023/01/26 13:19:02;;;;;;;71.10;27.95;;;;;;;;;;4994770;28;20030;-72
2023/01/26 13:21:47;;;;;;;75.38;29.40;;;;;;;;;;4994703;28;20126;-73
2023/01/26 13:24:33;;;;;;;75.72;30.75;;;;;;;;;;4997639;28;20025;-74
2023/01/26 13:27:27;;;;;;;73.72;32.28;;;;;;;;;;4984864;28;20102;-72
2023/01/26 13:30:24;;;;;;;77.22;32.20;;;;;;;;;;4999188;28;20136;-72
2023/01/26 13:33:10;;;;;;;70.47;28.10;;;;;;;;;;4984629;28;20398;-72
2023/01/26 13:35:57;;;;;;;79.00;30.88;;;;;;;;;;4997998;28;20057;-73
2023/01/26 13:38:46;;;;;;;71.25;27.88;;;;;;;;;;4997213;28;20022;-72
2023/01/26 13:41:32;;;;;;;69.80;28.13;;;;;;;;;;4998730;28;20164;-71
2023/01/26 13:44:32;;;;;;;70.38;28.10;;;;;;;;;;4997659;28;20355;-72
2023/01/26 13:47:21;;;;;;;65.47;28.05;;;;;;;;;;4998114;28;20371;-72
2023/01/26 13:50:25;;;;;;;66.40;26.95;;;;;;;;;;4970439;28;20554;-72
2023/01/26 13:53:28;;;;;;;67.93;27.75;;;;;;;;;;4997918;28;20034;-71
2023/01/26 13:56:20;;;;;;;69.60;26.10;;;;;;;;;;4983953;28;20018;-72
2023/01/26 13:59:08;;;;;;;58.47;26.35;;;;;;;;;;4984000;28;20019;-72
2023/01/26 14:01:55;;;;;;;67.00;27.02;;;;;;;;;;4997427;28;20482;-71
2023/01/26 14:04:49;;;;;;;65.57;28.48;;;;;;;;;;4997984;28;20037;-72
2023/01/26 14:07:42;;;;;;;61.97;29.10;;;;;;;;;;4999324;28;20042;-71
2023/01/26 14:10:27;;;;;;;64.70;28.67;;;;;;;;;;4983921;28;20396;-70
2023/01/26 14:13:33;;;;;;;59.53;26.10;;;;;;;;;;4996420;28;20034;-71
2023/01/26 14:16:23;;;;;;;62.58;25.85;;;;;;;;;;4996659;28;20049;-71
2023/01/26 14:19:16;;;;;;;56.92;24.48;;;;;;;;;;4998106;28;20032;-71
2023/01/26 14:22:02;;;;;;;70.20;28.92;;;;;;;;;;4997955;28;20014;-70
2023/01/26 14:24:49;;;;;;;59.35;26.80;;;;;;;;;;4997729;28;20019;-70
2023/01/26 14:27:35;;;;;;;60.58;25.83;;;;;;;;;;4997472;28;20023;-71
2023/01/26 14:30:25;;;;;;;60.90;26.23;;;;;;;;;;4997509;28;20026;-70
2023/01/26 14:33:12;;;;;;;61.65;27.08;;;;;;;;;;5015134;28;20018;-69
2023/01/26 14:35:59;;;;;;;62.15;26.05;;;;;;;;;;5014806;28;20074;-71
2023/01/26 14:38:46;;;;;;;67.63;26.85;;;;;;;;;;5003976;28;20439;-71
2023/01/26 14:41:35;;;;;;;66.20;26.60;;;;;;;;;;4983368;28;20367;-71
2023/01/26 14:44:21;;;;;;;61.30;27.02;;;;;;;;;;4983338;28;20015;-72
2023/01/26 14:47:06;;;;;;;70.28;29.65;;;;;;;;;;4983292;28;20277;-70
2023/01/26 14:49:59;;;;;;;69.63;29.05;;;;;;;;;;4996695;28;20026;-70
2023/01/26 14:52:45;;;;;;;67.25;28.83;;;;;;;;;;4981785;28;20050;-70
2023/01/26 14:55:33;;;;;;;62.72;28.50;;;;;;;;;;4976704;28;20054;-71
2023/01/26 14:58:20;;;;;;;62.25;27.15;;;;;;;;;;4976389;28;20097;-70
2023/01/26 15:01:06;;;;;;;68.65;30.88;;;;;;;;;;4987331;28;20026;-69
2023/01/26 15:03:59;;;;;;;60.45;26.10;;;;;;;;;;4996435;28;20037;-69
2023/01/26 15:06:44;;;;;;;61.58;28.88;;;;;;;;;;4991361;28;20410;-70
2023/01/26 15:09:30;;;;;;;66.28;30.30;;;;;;;;;;4996129;28;20435;-71
2023/01/26 15:12:16;;;;;;;59.72;26.85;;;;;;;;;;4981642;28;20362;-71
2023/01/26 15:15:02;;;;;;;54.25;25.35;;;;;;;;;;5009996;28;20026;-68
2023/01/26 15:17:58;;;;;;;58.17;26.77;;;;;;;;;;5002101;28;20035;-69
2023/01/26 15:20:59;;;;;;;55.97;25.40;;;;;;;;;;4992028;28;20042;-68
2023/01/26 15:23:47;;;;;;;56.10;25.77;;;;;;;;;;4999471;28;20014;-69
2023/01/26 15:26:34;;;;;;;51.85;25.00;;;;;;;;;;4995080;28;20101;-70
2023/01/26 15:29:26;;;;;;;54.75;26.25;;;;;;;;;;4995645;28;20410;-70
2023/01/26 15:32:26;;;;;;;52.50;24.20;;;;;;;;;;4997184;28;20030;-71
2023/01/26 15:35:20;;;;;;;52.33;23.38;;;;;;;;;;5008774;28;20078;-71
2023/01/26 15:38:09;;;;;;;55.10;25.98;;;;;;;;;;4996855;28;20137;-71
2023/01/26 15:40:55;;;;;;;53.17;23.95;;;;;;;;;;4982691;28;20030;-72
2023/01/26 15:43:40;;;;;;;49.70;25.02;;;;;;;;;;4995981;28;20137;-72
2023/01/26 15:46:26;;;;;;;49.50;22.67;;;;;;;;;;4981421;28;20047;-72
2023/01/26 15:49:12;;;;;;;50.30;25.13;;;;;;;;;;4995960;28;20101;-70
2023/01/26 15:51:58;;;;;;;48.95;23.40;;;;;;;;;;4996399;28;20034;-73
2023/01/26 15:54:44;;;;;;;43.78;22.40;;;;;;;;;;4995998;28;20127;-69
2023/01/26 15:57:29;;;;;;;50.15;23.83;;;;;;;;;;4981934;28;20419;-71
2023/01/26 16:00:16;;;;;;;54.05;25.33;;;;;;;;;;4995693;28;20111;-71
2023/01/26 16:03:08;;;;;;;59.20;26.90;;;;;;;;;;4980585;28;20029;-73
2023/01/26 16:05:54;;;;;;;53.08;26.38;;;;;;;;;;4995978;28;20022;-72
2023/01/26 16:08:39;;;;;;;62.60;28.65;;;;;;;;;;4995992;28;20458;-72
2023/01/26 16:11:29;;;;;;;60.85;29.10;;;;;;;;;;4996049;28;20030;-72
2023/01/26 16:14:15;;;;;;;69.05;31.02;;;;;;;;;;4976327;28;20037;-71
2023/01/26 16:17:01;;;;;;;65.18;29.02;;;;;;;;;;4975706;28;20030;-71
2023/01/26 16:19:47;;;;;;;69.22;29.77;;;;;;;;;;4975758;28;20022;-71
2023/01/26 16:22:32;;;;;;;66.20;30.17;;;;;;;;;;4976133;28;20025;-71
2023/01/26 16:25:22;;;;;;;74.70;32.58;;;;;;;;;;4975929;28;20034;-71
2023/01/26 16:28:07;;;;;;;71.50;30.15;;;;;;;;;;4976483;28;20033;-72
2023/01/26 16:30:53;;;;;;;76.55;32.33;;;;;;;;;;4962159;28;20023;-72
2023/01/26 16:33:38;;;;;;;88.55;36.83;;;;;;;;;;4976181;28;20029;-71
2023/01/26 16:36:24;;;;;;;101.50;40.05;;;;;;;;;;4975223;28;20051;-71
2023/01/26 16:39:10;;;;;;;89.78;40.05;;;;;;;;;;4975585;28;20029;-73
2023/01/26 16:41:55;;;;;;;80.88;35.80;;;;;;;;;;4975538;28;20101;-71
2023/01/26 16:44:41;;;;;;;76.53;33.22;;;;;;;;;;4975108;28;20050;-71
2023/01/26 16:47:26;;;;;;;77.40;34.22;;;;;;;;;;4975476;28;20027;-72
2023/01/26 16:50:12;;;;;;;70.75;31.33;;;;;;;;;;4975327;28;20391;-70
2023/01/26 16:52:58;;;;;;;69.03;31.92;;;;;;;;;;4975442;28;20023;-71
2023/01/26 16:55:43;;;;;;;76.57;31.67;;;;;;;;;;4975815;28;20019;-71
2023/01/26 16:58:31;;;;;;;85.50;33.25;;;;;;;;;;4978621;28;20448;-71
2023/01/26 17:01:21;;;;;;;82.28;34.80;;;;;;;;;;4978617;28;20038;-73
2023/01/26 17:04:08;;;;;;;77.07;33.33;;;;;;;;;;4978575;28;20033;-70
2023/01/26 17:06:54;;;;;;;84.55;34.63;;;;;;;;;;4979157;28;20050;-71
2023/01/26 17:09:39;;;;;;;70.78;32.17;;;;;;;;;;4979267;28;20026;-71